createdAt,value
2018-07-06T00:00:18.253Z,0.00
2018-07-06T00:01:18.249Z,0.00
2018-07-06T00:02:18.246Z,0.00
2018-07-06T00:03:18.245Z,0.00
2018-07-06T00:04:18.259Z,0.00
2018-07-06T00:05:18.241Z,0.00
2018-07-06T00:06:18.233Z,0.00
2018-07-06T00:07:18.227Z,0.00
2018-07-06T00:08:18.228Z,0.00
2018-07-06T00:09:18.224Z,0.00
2018-07-06T00:10:18.237Z,0.00
2018-07-06T00:11:18.215Z,0.00
2018-07-06T00:12:18.224Z,0.00
2018-07-06T00:13:18.219Z,0.00
2018-07-06T00:14:18.210Z,0.00
2018-07-06T00:15:18.206Z,0.00
2018-07-06T00:16:18.224Z,0.00
2018-07-06T00:17:18.197Z,0.00
2018-07-06T00:18:18.205Z,0.00
2018-07-06T00:19:18.192Z,0.00
2018-07-06T00:20:18.194Z,0.00
2018-07-06T00:21:18.201Z,0.00
2018-07-06T00:22:18.185Z,0.00
2018-07-06T00:23:18.182Z,0.00
2018-07-06T00:24:18.178Z,0.00
2018-07-06T00:25:18.178Z,0.00
2018-07-06T00:26:18.173Z,0.00
2018-07-06T00:27:18.168Z,0.00
2018-07-06T00:28:18.161Z,0.00
2018-07-06T00:29:18.163Z,0.00
2018-07-06T00:30:18.159Z,0.00
2018-07-06T00:31:18.169Z,0.00
2018-07-06T00:32:18.158Z,0.00
2018-07-06T00:33:18.151Z,0.00
2018-07-06T00:34:18.150Z,0.00
2018-07-06T00:35:18.145Z,0.00
2018-07-06T00:36:18.144Z,0.00
2018-07-06T00:37:18.139Z,0.00
2018-07-06T00:38:18.132Z,0.00
2018-07-06T00:39:18.140Z,0.00
2018-07-06T00:40:18.148Z,0.00
2018-07-06T00:41:18.126Z,0.00
2018-07-06T00:42:18.129Z,0.00
2018-07-06T00:43:18.139Z,0.00
2018-07-06T00:44:18.120Z,0.00
2018-07-06T00:45:18.116Z,0.00
2018-07-06T00:46:18.113Z,0.00
2018-07-06T00:47:18.112Z,0.00
2018-07-06T00:48:18.112Z,0.00
2018-07-06T00:49:18.096Z,0.00
2018-07-06T00:50:18.099Z,0.00
2018-07-06T00:51:18.093Z,0.00
2018-07-06T00:52:18.096Z,0.00
2018-07-06T00:53:18.095Z,0.00
2018-07-06T00:54:18.084Z,0.00
2018-07-06T00:55:18.090Z,0.00
2018-07-06T00:56:18.083Z,0.00
2018-07-06T00:57:18.079Z,0.00
2018-07-06T00:58:18.078Z,0.00
2018-07-06T00:59:18.077Z,0.00
2018-07-06T01:00:18.071Z,0.00
2018-07-06T01:01:18.068Z,0.00
2018-07-06T01:02:18.071Z,0.00
2018-07-06T01:03:18.064Z,0.00
2018-07-06T01:04:18.052Z,0.00
2018-07-06T01:05:18.089Z,0.00
2018-07-06T01:06:18.056Z,0.00
2018-07-06T01:07:18.052Z,0.00
2018-07-06T01:08:18.054Z,0.00
2018-07-06T01:09:18.044Z,0.00
2018-07-06T01:10:18.042Z,0.00
2018-07-06T01:11:18.042Z,0.00
2018-07-06T01:12:18.028Z,0.00
2018-07-06T01:13:18.030Z,0.00
2018-07-06T01:14:18.020Z,0.00
2018-07-06T01:15:18.025Z,0.00
2018-07-06T01:16:18.025Z,0.00
2018-07-06T01:17:18.022Z,0.00
2018-07-06T01:18:18.019Z,0.00
2018-07-06T01:19:18.016Z,0.00
2018-07-06T01:20:18.015Z,0.00
2018-07-06T01:21:18.009Z,0.00
2018-07-06T01:22:18.018Z,0.00
2018-07-06T01:23:18.006Z,0.00
2018-07-06T01:24:17.999Z,0.00
2018-07-06T01:25:18.010Z,0.00
2018-07-06T01:26:18.041Z,0.00
2018-07-06T01:27:17.990Z,0.00
2018-07-06T01:28:17.996Z,0.00
2018-07-06T01:29:17.985Z,0.00
2018-07-06T01:30:17.984Z,0.00
2018-07-06T01:31:18.001Z,0.00
2018-07-06T02:05:10.261Z,0.00
2018-07-06T02:06:10.223Z,0.00
2018-07-06T02:08:03.152Z,0.00
2018-07-06T02:09:03.128Z,0.00
2018-07-06T02:10:56.227Z,0.00
2018-07-06T02:11:56.258Z,0.00
2018-07-06T02:13:49.158Z,0.00
2018-07-06T02:14:49.137Z,0.00
2018-07-06T02:16:42.044Z,0.00
2018-07-06T02:17:42.030Z,0.00
2018-07-06T02:19:34.969Z,0.00
2018-07-06T02:20:34.950Z,0.00
2018-07-06T02:22:27.909Z,0.00
2018-07-06T02:23:27.885Z,0.00
2018-07-06T02:25:20.843Z,0.00
2018-07-06T02:26:20.831Z,0.00
2018-07-06T02:28:13.857Z,0.00
2018-07-06T02:29:13.836Z,0.00
2018-07-06T02:31:06.815Z,0.00
2018-07-06T02:32:06.800Z,0.00
2018-07-06T02:33:59.741Z,0.00
2018-07-06T02:34:59.709Z,0.00
2018-07-06T02:36:52.618Z,0.00
2018-07-06T02:37:52.589Z,0.00
2018-07-06T02:39:45.504Z,0.00
2018-07-06T02:40:45.479Z,0.00
2018-07-06T02:42:38.446Z,0.00
2018-07-06T02:43:38.412Z,0.00
2018-07-06T02:45:31.317Z,0.00
2018-07-06T02:46:31.309Z,0.00
2018-07-06T02:48:24.285Z,0.00
2018-07-06T02:49:24.260Z,0.00
2018-07-06T02:50:24.261Z,0.00
2018-07-06T02:51:24.254Z,0.00
2018-07-06T02:52:24.252Z,0.00
2018-07-06T02:53:24.249Z,0.00
2018-07-06T02:54:24.247Z,0.00
2018-07-06T02:55:24.244Z,0.00
2018-07-06T02:56:24.241Z,4.00
2018-07-06T02:57:24.242Z,4.00
2018-07-06T02:58:24.234Z,4.00
2018-07-06T02:59:24.236Z,4.00
2018-07-06T03:00:24.229Z,4.00
2018-07-06T03:01:24.227Z,4.00
2018-07-06T03:02:24.224Z,8.00
2018-07-06T03:03:24.223Z,8.00
2018-07-06T03:04:24.219Z,8.00
2018-07-06T03:05:24.216Z,8.00
2018-07-06T03:06:24.212Z,12.00
2018-07-06T03:07:24.210Z,12.00
2018-07-06T03:08:24.201Z,16.00
2018-07-06T03:09:24.208Z,16.00
2018-07-06T03:10:24.206Z,20.00
2018-07-06T03:11:24.201Z,24.00
2018-07-06T03:12:24.198Z,28.00
2018-07-06T03:13:24.193Z,32.00
2018-07-06T03:14:24.202Z,32.00
2018-07-06T03:15:24.188Z,36.00
2018-07-06T03:16:24.186Z,40.00
2018-07-06T03:17:24.187Z,44.00
2018-07-06T03:18:24.181Z,48.00
2018-07-06T03:19:24.179Z,52.00
2018-07-06T03:20:24.176Z,60.00
2018-07-06T03:21:24.182Z,60.00
2018-07-06T03:22:24.166Z,68.00
2018-07-06T03:23:24.165Z,72.00
2018-07-06T03:24:24.161Z,72.00
2018-07-06T03:25:24.158Z,76.00
2018-07-06T03:26:24.157Z,80.00
2018-07-06T03:27:24.155Z,84.00
2018-07-06T03:28:24.319Z,88.00
2018-07-06T03:29:24.149Z,96.00
2018-07-06T03:30:24.148Z,100.00
2018-07-06T03:31:24.145Z,104.00
2018-07-06T03:32:24.147Z,108.00
2018-07-06T03:33:24.140Z,112.00
2018-07-06T03:34:24.137Z,116.00
2018-07-06T03:35:24.132Z,128.00
2018-07-06T03:36:24.133Z,140.00
2018-07-06T03:37:24.124Z,156.00
2018-07-06T03:38:24.125Z,168.00
2018-07-06T03:39:24.119Z,176.00
2018-07-06T03:40:24.117Z,188.00
2018-07-06T03:41:24.117Z,208.00
2018-07-06T03:42:24.117Z,216.00
2018-07-06T03:43:24.112Z,216.00
2018-07-06T03:44:24.111Z,220.00
2018-07-06T03:45:24.105Z,220.00
2018-07-06T03:46:24.099Z,216.00
2018-07-06T03:47:24.103Z,240.00
2018-07-06T03:48:24.085Z,256.00
2018-07-06T03:49:24.101Z,268.00
2018-07-06T03:50:24.093Z,296.00
2018-07-06T03:51:24.092Z,304.00
2018-07-06T03:52:24.086Z,268.00
2018-07-06T03:53:24.089Z,300.00
2018-07-06T03:54:24.081Z,328.00
2018-07-06T03:55:24.089Z,336.00
2018-07-06T03:56:24.076Z,344.00
2018-07-06T03:57:24.073Z,396.00
2018-07-06T03:58:24.082Z,388.00
2018-07-06T03:59:24.068Z,460.00
2018-07-06T04:00:24.065Z,488.00
2018-07-06T04:01:24.063Z,504.00
2018-07-06T04:02:24.063Z,532.00
2018-07-06T04:03:24.061Z,588.00
2018-07-06T04:04:24.055Z,672.00
2018-07-06T04:05:24.046Z,696.00
2018-07-06T04:06:24.050Z,908.00
2018-07-06T04:07:24.044Z,940.00
2018-07-06T04:08:24.043Z,928.00
2018-07-06T04:09:24.085Z,1148.00
2018-07-06T04:10:24.088Z,1180.00
2018-07-06T04:11:24.087Z,1184.00
2018-07-06T04:12:24.092Z,1188.00
2018-07-06T04:13:24.090Z,1248.00
2018-07-06T04:14:24.088Z,1192.00
2018-07-06T04:15:24.088Z,1144.00
2018-07-06T04:16:24.089Z,1260.00
2018-07-06T04:17:24.032Z,1352.00
2018-07-06T04:18:24.042Z,1292.00
2018-07-06T04:19:24.040Z,1252.00
2018-07-06T04:20:24.056Z,1324.00
2018-07-06T04:21:24.054Z,1324.00
2018-07-06T04:22:24.068Z,1208.00
2018-07-06T04:23:24.075Z,1264.00
2018-07-06T04:24:24.008Z,1220.00
2018-07-06T04:25:24.009Z,1204.00
2018-07-06T04:26:24.046Z,1280.00
2018-07-06T04:27:24.010Z,1032.00
2018-07-06T04:28:24.008Z,1308.00
2018-07-06T04:29:24.007Z,1168.00
2018-07-06T04:30:24.012Z,1184.00
2018-07-06T04:31:24.012Z,1244.00
2018-07-06T04:32:24.104Z,1444.00
2018-07-06T04:33:23.986Z,1440.00
2018-07-06T04:34:23.979Z,1572.00
2018-07-06T04:35:23.989Z,1504.00
2018-07-06T04:36:23.994Z,1812.00
2018-07-06T04:37:23.991Z,1816.00
2018-07-06T04:38:23.990Z,1824.00
2018-07-06T04:39:23.990Z,1628.00
2018-07-06T04:40:23.975Z,1852.00
2018-07-06T04:41:23.981Z,1904.00
2018-07-06T04:42:23.991Z,1944.00
2018-07-06T04:43:23.994Z,2028.00
2018-07-06T04:44:23.996Z,1984.00
2018-07-06T04:45:23.995Z,2104.00
2018-07-06T04:46:23.998Z,2212.00
2018-07-06T04:47:24.004Z,2260.00
2018-07-06T04:48:23.945Z,2304.00
2018-07-06T04:49:23.946Z,2320.00
2018-07-06T04:50:23.941Z,2568.00
2018-07-06T04:51:23.933Z,2740.00
2018-07-06T04:52:23.951Z,2756.00
2018-07-06T04:53:23.998Z,2968.00
2018-07-06T04:54:23.922Z,2796.00
2018-07-06T04:55:23.927Z,2768.00
2018-07-06T04:56:23.923Z,2608.00
2018-07-06T04:57:23.926Z,2688.00
2018-07-06T04:58:23.920Z,2324.00
2018-07-06T04:59:23.918Z,2740.00
2018-07-06T05:00:23.916Z,2444.00
2018-07-06T05:01:23.915Z,2472.00
2018-07-06T05:02:23.903Z,2684.00
2018-07-06T05:03:23.908Z,2684.00
2018-07-06T05:04:23.910Z,2860.00
2018-07-06T05:05:23.907Z,3172.00
2018-07-06T05:06:23.904Z,3120.00
2018-07-06T05:07:23.902Z,3136.00
2018-07-06T05:08:23.902Z,2992.00
2018-07-06T05:09:23.917Z,3004.00
2018-07-06T05:10:23.901Z,3572.00
2018-07-06T05:11:23.892Z,3456.00
2018-07-06T05:12:23.892Z,3340.00
2018-07-06T05:13:23.891Z,3528.00
2018-07-06T05:14:23.886Z,3468.00
2018-07-06T05:15:23.883Z,2908.00
2018-07-06T05:16:23.882Z,2904.00
2018-07-06T05:17:23.881Z,2840.00
2018-07-06T05:18:23.875Z,3532.00
2018-07-06T05:19:23.876Z,3836.00
2018-07-06T05:20:23.877Z,3576.00
2018-07-06T05:21:23.941Z,3384.00
2018-07-06T05:22:23.872Z,3188.00
2018-07-06T05:23:23.867Z,3324.00
2018-07-06T05:24:23.867Z,3236.00
2018-07-06T05:25:23.863Z,3096.00
2018-07-06T05:26:23.864Z,3296.00
2018-07-06T05:27:23.859Z,3344.00
2018-07-06T05:28:23.848Z,3296.00
2018-07-06T05:29:23.860Z,3352.00
2018-07-06T05:30:23.874Z,3844.00
2018-07-06T05:31:23.850Z,4116.00
2018-07-06T05:32:23.857Z,4080.00
2018-07-06T05:33:23.845Z,4052.00
2018-07-06T05:34:23.840Z,4464.00
2018-07-06T05:35:23.840Z,4848.00
2018-07-06T05:36:23.851Z,4928.00
2018-07-06T05:37:23.835Z,4760.00
2018-07-06T05:38:23.875Z,4724.00
2018-07-06T05:39:23.880Z,4800.00
2018-07-06T05:40:23.879Z,4772.00
2018-07-06T05:41:23.879Z,4756.00
2018-07-06T05:42:23.870Z,4856.00
2018-07-06T05:43:23.880Z,5268.00
2018-07-06T05:44:23.891Z,5580.00
2018-07-06T05:45:23.821Z,5728.00
2018-07-06T05:46:23.890Z,5888.00
2018-07-06T05:47:23.818Z,6372.00
2018-07-06T05:48:23.807Z,6568.00
2018-07-06T05:49:23.816Z,7600.00
2018-07-06T05:50:23.811Z,8640.00
2018-07-06T05:51:23.812Z,9392.00
2018-07-06T05:52:23.808Z,9472.00
2018-07-06T05:53:23.799Z,9756.00
2018-07-06T05:54:23.801Z,9380.00
2018-07-06T05:55:23.798Z,8984.00
2018-07-06T05:56:23.819Z,7980.00
2018-07-06T05:57:23.796Z,8644.00
2018-07-06T05:58:23.794Z,8400.00
2018-07-06T05:59:23.789Z,7676.00
2018-07-06T06:00:23.789Z,7528.00
2018-07-06T06:01:23.787Z,7632.00
2018-07-06T06:02:23.786Z,7060.00
2018-07-06T06:03:23.781Z,6544.00
2018-07-06T06:04:23.780Z,6200.00
2018-07-06T06:05:23.781Z,6708.00
2018-07-06T06:06:23.779Z,6704.00
2018-07-06T06:07:23.776Z,5816.00
2018-07-06T06:08:23.774Z,6764.00
2018-07-06T06:09:23.772Z,6500.00
2018-07-06T06:10:23.772Z,6248.00
2018-07-06T06:11:23.767Z,6096.00
2018-07-06T06:12:23.769Z,6036.00
2018-07-06T06:13:23.765Z,5616.00
2018-07-06T06:14:23.766Z,5444.00
2018-07-06T06:15:23.762Z,5408.00
2018-07-06T06:16:23.758Z,5520.00
2018-07-06T06:17:23.757Z,5596.00
2018-07-06T06:18:23.764Z,5368.00
2018-07-06T06:19:23.768Z,5080.00
2018-07-06T06:20:23.752Z,5272.00
2018-07-06T06:21:23.751Z,5768.00
2018-07-06T06:22:23.813Z,6304.00
2018-07-06T06:23:23.753Z,6880.00
2018-07-06T06:24:23.746Z,7168.00
2018-07-06T06:25:23.745Z,7252.00
2018-07-06T06:26:23.741Z,7336.00
2018-07-06T06:27:23.735Z,7640.00
2018-07-06T06:28:23.739Z,8232.00
2018-07-06T06:29:23.735Z,8312.00
2018-07-06T06:30:23.732Z,8108.00
2018-07-06T06:31:23.724Z,7840.00
2018-07-06T06:32:23.729Z,7576.00
2018-07-06T06:33:23.831Z,7228.00
2018-07-06T06:34:23.726Z,7152.00
2018-07-06T06:35:23.720Z,7392.00
2018-07-06T06:36:23.721Z,7784.00
2018-07-06T06:37:23.721Z,7756.00
2018-07-06T06:38:23.720Z,8292.00
2018-07-06T06:39:23.722Z,8748.00
2018-07-06T06:40:23.715Z,9152.00
2018-07-06T06:41:23.713Z,9428.00
2018-07-06T06:42:23.713Z,8920.00
2018-07-06T06:43:23.710Z,9176.00
2018-07-06T06:44:23.716Z,8608.00
2018-07-06T06:45:23.707Z,8168.00
2018-07-06T06:46:23.705Z,9356.00
2018-07-06T06:47:23.708Z,9284.00
2018-07-06T06:48:23.703Z,8660.00
2018-07-06T06:49:23.702Z,8172.00
2018-07-06T06:50:23.696Z,6572.00
2018-07-06T06:51:23.694Z,5832.00
2018-07-06T06:52:23.697Z,5172.00
2018-07-06T06:53:23.697Z,5372.00
2018-07-06T06:54:23.689Z,6108.00
2018-07-06T06:55:23.688Z,5896.00
2018-07-06T06:56:23.686Z,5504.00
2018-07-06T06:57:23.684Z,6356.00
2018-07-06T06:58:23.699Z,6424.00
2018-07-06T06:59:23.686Z,5976.00
2018-07-06T07:00:27.533Z,6504.00
2018-07-06T07:01:23.678Z,6892.00
2018-07-06T07:02:23.678Z,6092.00
2018-07-06T07:03:23.675Z,5708.00
2018-07-06T07:04:23.677Z,5404.00
2018-07-06T07:05:23.672Z,5996.00
2018-07-06T07:06:23.671Z,5704.00
2018-07-06T07:07:23.707Z,5904.00
2018-07-06T07:08:23.667Z,6028.00
2018-07-06T07:09:23.670Z,5928.00
2018-07-06T07:10:23.663Z,5720.00
2018-07-06T07:11:23.667Z,5616.00
2018-07-06T07:12:23.655Z,5512.00
2018-07-06T07:13:23.659Z,5236.00
2018-07-06T07:14:23.670Z,5896.00
2018-07-06T07:15:23.653Z,5532.00
2018-07-06T07:16:23.646Z,5172.00
2018-07-06T07:17:23.652Z,5584.00
2018-07-06T07:18:23.647Z,6052.00
2018-07-06T07:19:23.644Z,6528.00
2018-07-06T07:20:23.645Z,7224.00
2018-07-06T07:21:23.642Z,7236.00
2018-07-06T07:22:23.640Z,7064.00
2018-07-06T07:23:23.643Z,7496.00
2018-07-06T07:24:23.642Z,8152.00
2018-07-06T07:25:23.636Z,8544.00
2018-07-06T07:26:23.645Z,7648.00
2018-07-06T07:27:23.633Z,7596.00
2018-07-06T07:28:23.634Z,7972.00
2018-07-06T07:29:23.629Z,7980.00
2018-07-06T07:30:23.631Z,7992.00
2018-07-06T07:31:23.626Z,7556.00
2018-07-06T07:32:23.622Z,7164.00
2018-07-06T07:33:23.622Z,6684.00
2018-07-06T07:34:23.615Z,5576.00
2018-07-06T07:35:23.617Z,6328.00
2018-07-06T07:36:23.618Z,6964.00
2018-07-06T07:37:23.613Z,7060.00
2018-07-06T07:38:23.617Z,7240.00
2018-07-06T07:39:23.614Z,8352.00
2018-07-06T07:40:23.610Z,9492.00
2018-07-06T07:41:23.608Z,9744.00
2018-07-06T07:42:23.601Z,9708.00
2018-07-06T07:43:23.606Z,9484.00
2018-07-06T07:44:23.614Z,10348.00
2018-07-06T07:45:23.611Z,10136.00
2018-07-06T07:46:23.644Z,10400.00
2018-07-06T07:47:23.599Z,10588.00
2018-07-06T07:48:23.598Z,10660.00
2018-07-06T07:49:23.597Z,10348.00
2018-07-06T07:50:23.599Z,10168.00
2018-07-06T07:51:23.596Z,10180.00
2018-07-06T07:52:23.605Z,9964.00
2018-07-06T07:53:23.591Z,10404.00
2018-07-06T07:54:23.620Z,10300.00
2018-07-06T07:55:23.590Z,10312.00
2018-07-06T07:56:23.590Z,9788.00
2018-07-06T07:57:23.588Z,10180.00
2018-07-06T07:58:23.600Z,9944.00
2018-07-06T07:59:23.583Z,10568.00
2018-07-06T08:00:23.639Z,10284.00
2018-07-06T08:01:23.699Z,9808.00
2018-07-06T08:02:23.583Z,10104.00
2018-07-06T08:03:23.580Z,9108.00
2018-07-06T08:04:23.579Z,9060.00
2018-07-06T08:05:23.579Z,8744.00
2018-07-06T08:06:23.577Z,8648.00
2018-07-06T08:07:23.577Z,9100.00
2018-07-06T08:08:23.574Z,10308.00
2018-07-06T08:09:23.575Z,10652.00
2018-07-06T08:10:23.575Z,10620.00
2018-07-06T08:11:23.571Z,9708.00
2018-07-06T08:12:23.571Z,9796.00
2018-07-06T08:13:23.572Z,9544.00
2018-07-06T08:14:23.608Z,9068.00
2018-07-06T08:15:23.567Z,8628.00
2018-07-06T08:16:23.568Z,11100.00
2018-07-06T08:17:23.571Z,11440.00
2018-07-06T08:18:23.615Z,9992.00
2018-07-06T08:19:23.577Z,9992.00
2018-07-06T08:20:23.561Z,10728.00
2018-07-06T08:21:23.601Z,11848.00
2018-07-06T08:22:23.562Z,12260.00
2018-07-06T08:23:23.563Z,11484.00
2018-07-06T08:24:23.559Z,13000.00
2018-07-06T08:25:23.561Z,12376.00
2018-07-06T08:26:23.559Z,12100.00
2018-07-06T08:27:23.558Z,12176.00
2018-07-06T08:28:23.557Z,13312.00
2018-07-06T08:29:23.560Z,12844.00
2018-07-06T08:30:23.587Z,12424.00
2018-07-06T08:31:23.554Z,10828.00
2018-07-06T08:32:23.555Z,11684.00
2018-07-06T08:33:23.555Z,12408.00
2018-07-06T08:34:23.557Z,12288.00
2018-07-06T08:35:23.551Z,12592.00
2018-07-06T08:36:23.561Z,12740.00
2018-07-06T08:37:23.550Z,12704.00
2018-07-06T08:38:23.548Z,12808.00
2018-07-06T08:39:23.550Z,12696.00
2018-07-06T08:40:23.548Z,12608.00
2018-07-06T08:41:23.549Z,12540.00
2018-07-06T08:42:23.550Z,12604.00
2018-07-06T08:43:23.549Z,12840.00
2018-07-06T08:44:23.548Z,12880.00
2018-07-06T08:45:23.545Z,12952.00
2018-07-06T08:46:23.547Z,13476.00
2018-07-06T08:47:23.545Z,13480.00
2018-07-06T08:48:23.546Z,13536.00
2018-07-06T08:49:23.546Z,13464.00
2018-07-06T08:50:23.571Z,14008.00
2018-07-06T08:51:23.544Z,14720.00
2018-07-06T08:52:23.544Z,15640.00
2018-07-06T08:53:23.544Z,16644.00
2018-07-06T08:54:23.546Z,17728.00
2018-07-06T08:55:23.546Z,19296.00
2018-07-06T08:56:23.544Z,20608.00
2018-07-06T08:57:23.543Z,21920.00
2018-07-06T08:58:23.639Z,21984.00
2018-07-06T08:59:23.543Z,22016.00
2018-07-06T09:00:23.541Z,23040.00
2018-07-06T09:01:23.541Z,22912.00
2018-07-06T09:02:23.542Z,24288.00
2018-07-06T09:03:23.544Z,24288.00
2018-07-06T09:04:23.735Z,24384.00
2018-07-06T09:05:23.551Z,24832.00
2018-07-06T09:06:23.548Z,24192.00
2018-07-06T09:07:23.548Z,24128.00
2018-07-06T09:08:23.549Z,22336.00
2018-07-06T09:09:23.612Z,23648.00
2018-07-06T09:10:23.634Z,23040.00
2018-07-06T09:11:23.675Z,19872.00
2018-07-06T09:12:23.632Z,18880.00
2018-07-06T09:13:23.579Z,17856.00
2018-07-06T09:14:23.602Z,16240.00
2018-07-06T09:15:23.561Z,15580.00
2018-07-06T09:16:23.659Z,16652.00
2018-07-06T09:17:23.747Z,18080.00
2018-07-06T09:18:23.565Z,17600.00
2018-07-06T09:19:23.805Z,18368.00
2018-07-06T09:20:23.565Z,17320.00
2018-07-06T09:21:23.563Z,23168.00
2018-07-06T09:22:23.565Z,25376.00
2018-07-06T09:23:23.568Z,30816.00
2018-07-06T09:24:23.599Z,29056.00
2018-07-06T09:25:23.650Z,30272.00
2018-07-06T09:26:23.639Z,27456.00
2018-07-06T09:27:23.573Z,28512.00
2018-07-06T09:28:23.572Z,28512.00
2018-07-06T09:29:23.575Z,30080.00
2018-07-06T09:30:23.575Z,27712.00
2018-07-06T09:31:23.581Z,27168.00
2018-07-06T09:32:23.580Z,29408.00
2018-07-06T09:33:23.588Z,33760.00
2018-07-06T09:34:23.583Z,30336.00
2018-07-06T09:35:23.583Z,30016.00
2018-07-06T09:36:23.589Z,30048.00
2018-07-06T09:37:23.592Z,29184.00
2018-07-06T09:38:23.592Z,29504.00
2018-07-06T09:39:23.592Z,28288.00
2018-07-06T09:40:23.598Z,27488.00
2018-07-06T09:41:23.601Z,28320.00
2018-07-06T09:42:23.609Z,26944.00
2018-07-06T09:43:23.669Z,28512.00
2018-07-06T09:44:23.611Z,27168.00
2018-07-06T09:45:23.614Z,26560.00
2018-07-06T09:46:23.624Z,21600.00
2018-07-06T09:47:23.620Z,19712.00
2018-07-06T09:48:23.620Z,20160.00
2018-07-06T09:49:23.622Z,22528.00
2018-07-06T09:50:23.626Z,24832.00
2018-07-06T09:51:23.628Z,25408.00
2018-07-06T09:52:23.635Z,23936.00
2018-07-06T09:53:23.639Z,25280.00
2018-07-06T09:54:23.642Z,21568.00
2018-07-06T09:55:23.643Z,22720.00
2018-07-06T09:56:23.643Z,22784.00
2018-07-06T09:57:23.655Z,23488.00
2018-07-06T09:58:23.670Z,24576.00
2018-07-06T09:59:23.652Z,24160.00
2018-07-06T10:00:23.653Z,23488.00
2018-07-06T10:01:23.659Z,23488.00
2018-07-06T10:02:23.657Z,22848.00
2018-07-06T10:03:23.681Z,22720.00
2018-07-06T10:04:23.720Z,22720.00
2018-07-06T10:05:23.667Z,22688.00
2018-07-06T10:06:23.672Z,23040.00
2018-07-06T10:07:23.673Z,25088.00
2018-07-06T10:08:23.673Z,25440.00
2018-07-06T10:09:23.675Z,25376.00
2018-07-06T10:10:23.703Z,26080.00
2018-07-06T10:11:23.683Z,26496.00
2018-07-06T10:12:23.681Z,26528.00
2018-07-06T10:13:23.691Z,27008.00
2018-07-06T10:14:23.689Z,26784.00
2018-07-06T10:15:23.689Z,28064.00
2018-07-06T10:16:23.699Z,28576.00
2018-07-06T10:17:23.697Z,29120.00
2018-07-06T10:18:23.700Z,29376.00
2018-07-06T10:19:23.708Z,29536.00
2018-07-06T10:20:23.704Z,30592.00
2018-07-06T10:21:23.706Z,31232.00
2018-07-06T10:22:23.705Z,31520.00
2018-07-06T10:23:23.715Z,31648.00
2018-07-06T10:24:23.714Z,31520.00
2018-07-06T10:25:23.717Z,31072.00
2018-07-06T10:26:23.723Z,30112.00
2018-07-06T10:27:23.789Z,29792.00
2018-07-06T10:28:23.729Z,29696.00
2018-07-06T10:29:23.729Z,28288.00
2018-07-06T10:30:23.735Z,27008.00
2018-07-06T10:31:23.734Z,26080.00
2018-07-06T10:32:23.738Z,23648.00
2018-07-06T10:33:23.762Z,25568.00
2018-07-06T10:34:23.753Z,24928.00
2018-07-06T10:35:23.751Z,25344.00
2018-07-06T10:36:23.754Z,25152.00
2018-07-06T10:37:23.757Z,25248.00
2018-07-06T10:38:23.762Z,26496.00
2018-07-06T10:39:23.771Z,27968.00
2018-07-06T10:40:23.757Z,28960.00
2018-07-06T10:41:23.773Z,28832.00
2018-07-06T10:42:23.770Z,26752.00
2018-07-06T10:43:23.773Z,25792.00
2018-07-06T10:44:23.780Z,24736.00
2018-07-06T10:45:23.781Z,25312.00
2018-07-06T10:46:23.781Z,26560.00
2018-07-06T10:47:23.787Z,23200.00
2018-07-06T10:48:23.789Z,22752.00
2018-07-06T10:49:23.794Z,23392.00
2018-07-06T10:50:23.799Z,23424.00
2018-07-06T10:51:23.800Z,24320.00
2018-07-06T10:52:23.801Z,24128.00
2018-07-06T10:53:23.806Z,23968.00
2018-07-06T10:54:23.807Z,22816.00
2018-07-06T10:55:23.811Z,21536.00
2018-07-06T10:56:23.813Z,21568.00
2018-07-06T10:57:23.819Z,24384.00
2018-07-06T10:58:23.822Z,25568.00
2018-07-06T10:59:23.842Z,23488.00
2018-07-06T11:00:23.819Z,21024.00
2018-07-06T11:01:23.836Z,20384.00
2018-07-06T11:02:23.817Z,20672.00
2018-07-06T11:03:23.823Z,19680.00
2018-07-06T11:04:23.831Z,18336.00
2018-07-06T11:05:23.835Z,15848.00
2018-07-06T11:06:23.838Z,15020.00
2018-07-06T11:07:23.845Z,17144.00
2018-07-06T11:08:23.842Z,19968.00
2018-07-06T11:09:23.842Z,22688.00
2018-07-06T11:10:23.846Z,23936.00
2018-07-06T11:11:23.846Z,22016.00
2018-07-06T11:12:23.841Z,18976.00
2018-07-06T11:13:23.884Z,17664.00
2018-07-06T11:14:23.853Z,15912.00
2018-07-06T11:15:23.852Z,15940.00
2018-07-06T11:16:23.853Z,16652.00
2018-07-06T11:17:23.855Z,18336.00
2018-07-06T11:18:23.860Z,21440.00
2018-07-06T11:19:23.875Z,25632.00
2018-07-06T11:20:23.862Z,28288.00
2018-07-06T11:21:23.860Z,29952.00
2018-07-06T11:22:23.867Z,31744.00
2018-07-06T11:23:23.868Z,36096.00
2018-07-06T11:24:23.867Z,37920.00
2018-07-06T11:25:23.955Z,33696.00
2018-07-06T11:26:23.880Z,29184.00
2018-07-06T11:27:23.882Z,28352.00
2018-07-06T11:28:23.876Z,25568.00
2018-07-06T11:29:23.880Z,24000.00
2018-07-06T11:30:23.882Z,22112.00
2018-07-06T11:31:23.886Z,21696.00
2018-07-06T11:32:23.883Z,24480.00
2018-07-06T11:33:23.893Z,27680.00
2018-07-06T11:34:23.895Z,27904.00
2018-07-06T11:35:23.915Z,20192.00
2018-07-06T11:36:23.907Z,14068.00
2018-07-06T11:37:23.902Z,11536.00
2018-07-06T11:38:23.898Z,9992.00
2018-07-06T11:39:23.928Z,9448.00
2018-07-06T11:40:23.909Z,9060.00
2018-07-06T11:41:23.912Z,9424.00
2018-07-06T11:42:23.916Z,8836.00
2018-07-06T11:43:23.910Z,8356.00
2018-07-06T11:44:23.926Z,7308.00
2018-07-06T11:45:23.924Z,6648.00
2018-07-06T11:46:23.925Z,6548.00
2018-07-06T11:47:23.926Z,6664.00
2018-07-06T11:48:23.932Z,5964.00
2018-07-06T11:49:23.937Z,5944.00
2018-07-06T11:50:24.001Z,5668.00
2018-07-06T11:51:23.947Z,6196.00
2018-07-06T11:52:23.970Z,7456.00
2018-07-06T11:53:23.950Z,8532.00
2018-07-06T11:54:23.942Z,9324.00
2018-07-06T11:55:23.943Z,9524.00
2018-07-06T11:56:23.938Z,9800.00
2018-07-06T11:57:23.936Z,11160.00
2018-07-06T11:58:23.940Z,12536.00
2018-07-06T11:59:23.947Z,12912.00
2018-07-06T12:00:23.945Z,12708.00
2018-07-06T12:01:23.941Z,12812.00
2018-07-06T12:02:23.939Z,13608.00
2018-07-06T12:03:23.941Z,14040.00
2018-07-06T12:04:24.011Z,14504.00
2018-07-06T12:05:23.943Z,13720.00
2018-07-06T12:06:23.944Z,12752.00
2018-07-06T12:07:23.948Z,11252.00
2018-07-06T12:08:23.956Z,9832.00
2018-07-06T12:09:23.946Z,8144.00
2018-07-06T12:10:23.959Z,7764.00
2018-07-06T12:11:23.944Z,9488.00
2018-07-06T12:12:23.950Z,15512.00
2018-07-06T12:13:23.949Z,19744.00
2018-07-06T12:14:23.953Z,25248.00
2018-07-06T12:15:23.953Z,60000.00
2018-07-06T12:16:23.952Z,102592.00
2018-07-06T12:17:23.957Z,56832.00
2018-07-06T12:18:23.946Z,74432.00
2018-07-06T12:19:23.966Z,124288.00
2018-07-06T12:20:23.959Z,120512.00
2018-07-06T12:21:23.994Z,85152.00
2018-07-06T12:22:23.968Z,80640.00
2018-07-06T12:23:24.012Z,70112.00
2018-07-06T12:24:23.977Z,98144.00
2018-07-06T12:25:23.989Z,85248.00
2018-07-06T12:26:23.993Z,93888.00
2018-07-06T12:27:23.999Z,93440.00
2018-07-06T12:28:24.007Z,96576.00
2018-07-06T12:29:24.023Z,89088.00
2018-07-06T12:30:24.021Z,74560.00
2018-07-06T12:31:24.028Z,63520.00
2018-07-06T12:32:24.038Z,36416.00
2018-07-06T12:33:24.049Z,54624.00
2018-07-06T12:34:24.056Z,35136.00
2018-07-06T12:35:24.063Z,36000.00
2018-07-06T12:36:24.075Z,63264.00
2018-07-06T12:37:24.084Z,50016.00
2018-07-06T12:38:24.090Z,39904.00
2018-07-06T12:39:24.095Z,31808.00
2018-07-06T12:40:24.096Z,49280.00
2018-07-06T12:41:24.113Z,43712.00
2018-07-06T12:42:24.121Z,37376.00
2018-07-06T12:43:24.130Z,40032.00
2018-07-06T12:44:24.135Z,40320.00
2018-07-06T12:45:24.145Z,41280.00
2018-07-06T12:46:24.149Z,39904.00
2018-07-06T12:47:24.158Z,38944.00
2018-07-06T12:48:24.162Z,38144.00
2018-07-06T12:49:24.172Z,38240.00
2018-07-06T12:50:24.182Z,39136.00
2018-07-06T12:51:24.186Z,37888.00
2018-07-06T12:52:24.191Z,37312.00
2018-07-06T12:53:24.200Z,36960.00
2018-07-06T12:54:24.206Z,36320.00
2018-07-06T12:55:24.214Z,35648.00
2018-07-06T12:56:24.224Z,34240.00
2018-07-06T12:57:24.227Z,32800.00
2018-07-06T12:58:24.299Z,30688.00